sensor_id;sensor_type;location;lat;lon;timestamp;P1;durP1;ratioP1;P2;durP2;ratioP2
43646;SDS011;56152;49.996;18.980;2022-08-19T00:02:33;10.50;;;7.38;;
43646;SDS011;56152;49.996;18.980;2022-08-19T00:07:36;12.23;;;7.78;;
43646;SDS011;56152;49.996;18.980;2022-08-19T00:12:41;10.10;;;6.95;;
43646;SDS011;56152;49.996;18.980;2022-08-19T00:17:48;14.20;;;9.32;;
43646;SDS011;56152;49.996;18.980;2022-08-19T00:22:53;15.43;;;8.65;;
43646;SDS011;56152;49.996;18.980;2022-08-19T00:27:56;12.77;;;8.40;;
43646;SDS011;56152;49.996;18.980;2022-08-19T00:32:59;11.55;;;7.55;;
43646;SDS011;56152;49.996;18.980;2022-08-19T00:38:04;12.50;;;9.27;;
43646;SDS011;56152;49.996;18.980;2022-08-19T00:43:10;10.23;;;8.25;;
43646;SDS011;56152;49.996;18.980;2022-08-19T00:48:13;11.18;;;8.75;;
43646;SDS011;56152;49.996;18.980;2022-08-19T00:53:19;12.02;;;7.53;;
43646;SDS011;56152;49.996;18.980;2022-08-19T00:58:24;11.48;;;10.30;;
43646;SDS011;56152;49.996;18.980;2022-08-19T01:03:31;10.07;;;8.70;;
43646;SDS011;56152;49.996;18.980;2022-08-19T01:08:35;13.32;;;8.63;;
43646;SDS011;56152;49.996;18.980;2022-08-19T01:13:37;10.98;;;8.55;;
43646;SDS011;56152;49.996;18.980;2022-08-19T01:18:40;10.32;;;8.25;;
43646;SDS011;56152;49.996;18.980;2022-08-19T01:23:46;10.38;;;8.20;;
43646;SDS011;56152;49.996;18.980;2022-08-19T01:28:49;9.77;;;7.50;;
43646;SDS011;56152;49.996;18.980;2022-08-19T01:33:54;9.15;;;7.53;;
43646;SDS011;56152;49.996;18.980;2022-08-19T01:39:00;8.73;;;7.57;;
43646;SDS011;56152;49.996;18.980;2022-08-19T01:44:09;12.90;;;9.23;;
43646;SDS011;56152;49.996;18.980;2022-08-19T01:49:12;16.95;;;10.57;;
43646;SDS011;56152;49.996;18.980;2022-08-19T01:54:18;14.70;;;10.25;;
43646;SDS011;56152;49.996;18.980;2022-08-19T01:59:21;14.63;;;9.25;;
43646;SDS011;56152;49.996;18.980;2022-08-19T02:04:26;12.20;;;10.90;;
43646;SDS011;56152;49.996;18.980;2022-08-19T02:09:34;12.73;;;9.40;;
43646;SDS011;56152;49.996;18.980;2022-08-19T02:14:36;12.35;;;9.80;;
43646;SDS011;56152;49.996;18.980;2022-08-19T02:19:38;12.60;;;9.75;;
43646;SDS011;56152;49.996;18.980;2022-08-19T02:24:44;11.73;;;9.35;;
43646;SDS011;56152;49.996;18.980;2022-08-19T02:29:46;13.90;;;11.27;;
43646;SDS011;56152;49.996;18.980;2022-08-19T02:34:49;15.43;;;10.48;;
43646;SDS011;56152;49.996;18.980;2022-08-19T02:39:53;14.43;;;11.68;;
43646;SDS011;56152;49.996;18.980;2022-08-19T02:44:55;13.52;;;10.75;;
43646;SDS011;56152;49.996;18.980;2022-08-19T02:49:58;17.35;;;9.77;;
43646;SDS011;56152;49.996;18.980;2022-08-19T02:55:04;11.18;;;9.35;;
43646;SDS011;56152;49.996;18.980;2022-08-19T03:00:07;13.13;;;9.98;;
43646;SDS011;56152;49.996;18.980;2022-08-19T03:05:12;15.25;;;10.73;;
43646;SDS011;56152;49.996;18.980;2022-08-19T03:10:16;13.00;;;8.88;;
43646;SDS011;56152;49.996;18.980;2022-08-19T03:15:18;14.48;;;11.32;;
43646;SDS011;56152;49.996;18.980;2022-08-19T03:20:22;11.45;;;9.98;;
43646;SDS011;56152;49.996;18.980;2022-08-19T03:25:28;12.40;;;10.35;;
43646;SDS011;56152;49.996;18.980;2022-08-19T03:30:30;12.25;;;10.93;;
43646;SDS011;56152;49.996;18.980;2022-08-19T03:35:32;14.40;;;10.80;;
43646;SDS011;56152;49.996;18.980;2022-08-19T03:40:37;12.70;;;11.27;;
43646;SDS011;56152;49.996;18.980;2022-08-19T03:45:39;14.63;;;12.07;;
43646;SDS011;56152;49.996;18.980;2022-08-19T03:50:43;12.00;;;10.35;;
43646;SDS011;56152;49.996;18.980;2022-08-19T03:55:48;13.43;;;11.25;;
43646;SDS011;56152;49.996;18.980;2022-08-19T04:00:53;12.63;;;9.65;;
43646;SDS011;56152;49.996;18.980;2022-08-19T04:05:56;21.73;;;11.20;;
43646;SDS011;56152;49.996;18.980;2022-08-19T04:11:00;16.17;;;9.82;;
43646;SDS011;56152;49.996;18.980;2022-08-19T04:16:10;17.77;;;10.82;;
43646;SDS011;56152;49.996;18.980;2022-08-19T04:21:15;18.85;;;12.13;;
43646;SDS011;56152;49.996;18.980;2022-08-19T04:26:23;20.02;;;11.18;;
43646;SDS011;56152;49.996;18.980;2022-08-19T04:31:28;14.27;;;10.35;;
43646;SDS011;56152;49.996;18.980;2022-08-19T04:36:35;15.47;;;11.97;;
43646;SDS011;56152;49.996;18.980;2022-08-19T04:41:42;17.60;;;11.55;;
43646;SDS011;56152;49.996;18.980;2022-08-19T04:47:02;13.15;;;11.00;;
43646;SDS011;56152;49.996;18.980;2022-08-19T04:52:06;11.43;;;8.90;;
43646;SDS011;56152;49.996;18.980;2022-08-19T04:57:11;14.90;;;10.75;;
43646;SDS011;56152;49.996;18.980;2022-08-19T05:02:13;19.65;;;12.95;;
43646;SDS011;56152;49.996;18.980;2022-08-19T05:07:15;12.80;;;10.65;;
43646;SDS011;56152;49.996;18.980;2022-08-19T05:12:22;17.13;;;13.45;;
43646;SDS011;56152;49.996;18.980;2022-08-19T05:17:24;15.95;;;12.30;;
43646;SDS011;56152;49.996;18.980;2022-08-19T05:22:27;16.20;;;11.38;;
43646;SDS011;56152;49.996;18.980;2022-08-19T05:27:37;16.02;;;11.93;;
43646;SDS011;56152;49.996;18.980;2022-08-19T05:32:39;14.27;;;10.95;;
43646;SDS011;56152;49.996;18.980;2022-08-19T05:37:45;20.27;;;11.23;;
43646;SDS011;56152;49.996;18.980;2022-08-19T05:42:49;20.13;;;10.93;;
43646;SDS011;56152;49.996;18.980;2022-08-19T05:47:51;10.65;;;9.55;;
43646;SDS011;56152;49.996;18.980;2022-08-19T05:52:56;16.85;;;10.90;;
43646;SDS011;56152;49.996;18.980;2022-08-19T05:58:01;10.85;;;9.75;;
43646;SDS011;56152;49.996;18.980;2022-08-19T06:03:07;15.82;;;12.77;;
43646;SDS011;56152;49.996;18.980;2022-08-19T06:08:14;12.60;;;9.13;;
43646;SDS011;56152;49.996;18.980;2022-08-19T06:13:19;10.57;;;9.48;;
43646;SDS011;56152;49.996;18.980;2022-08-19T06:18:25;14.15;;;9.23;;
43646;SDS011;56152;49.996;18.980;2022-08-19T06:23:28;10.93;;;9.52;;
43646;SDS011;56152;49.996;18.980;2022-08-19T06:28:33;11.68;;;8.43;;
43646;SDS011;56152;49.996;18.980;2022-08-19T06:33:35;14.73;;;10.25;;
43646;SDS011;56152;49.996;18.980;2022-08-19T06:38:39;10.20;;;7.72;;
43646;SDS011;56152;49.996;18.980;2022-08-19T06:43:44;11.60;;;8.38;;
43646;SDS011;56152;49.996;18.980;2022-08-19T06:48:46;12.85;;;10.48;;
43646;SDS011;56152;49.996;18.980;2022-08-19T06:53:53;13.10;;;9.10;;
43646;SDS011;56152;49.996;18.980;2022-08-19T07:04:27;11.55;;;9.70;;
43646;SDS011;56152;49.996;18.980;2022-08-19T07:09:31;11.18;;;7.82;;
43646;SDS011;56152;49.996;18.980;2022-08-19T07:14:35;14.15;;;9.82;;
43646;SDS011;56152;49.996;18.980;2022-08-19T07:19:41;12.25;;;7.72;;
43646;SDS011;56152;49.996;18.980;2022-08-19T07:24:44;10.10;;;7.95;;
43646;SDS011;56152;49.996;18.980;2022-08-19T07:29:48;11.70;;;7.70;;
43646;SDS011;56152;49.996;18.980;2022-08-19T07:34:50;15.95;;;9.85;;
43646;SDS011;56152;49.996;18.980;2022-08-19T07:39:52;15.00;;;8.70;;
43646;SDS011;56152;49.996;18.980;2022-08-19T07:44:57;9.43;;;7.10;;
43646;SDS011;56152;49.996;18.980;2022-08-19T07:49:59;10.50;;;6.38;;
43646;SDS011;56152;49.996;18.980;2022-08-19T07:55:04;9.73;;;6.32;;
43646;SDS011;56152;49.996;18.980;2022-08-19T08:00:11;7.15;;;6.45;;
43646;SDS011;56152;49.996;18.980;2022-08-19T08:05:13;15.80;;;7.20;;
43646;SDS011;56152;49.996;18.980;2022-08-19T08:10:35;7.05;;;6.35;;
43646;SDS011;56152;49.996;18.980;2022-08-19T08:15:38;11.43;;;6.35;;
43646;SDS011;56152;49.996;18.980;2022-08-19T08:20:40;8.55;;;6.80;;
43646;SDS011;56152;49.996;18.980;2022-08-19T08:25:43;9.48;;;7.07;;
43646;SDS011;56152;49.996;18.980;2022-08-19T08:31:00;9.43;;;7.68;;
43646;SDS011;56152;49.996;18.980;2022-08-19T08:36:04;9.18;;;6.88;;
43646;SDS011;56152;49.996;18.980;2022-08-19T08:41:12;11.77;;;7.28;;
43646;SDS011;56152;49.996;18.980;2022-08-19T08:46:26;9.90;;;6.97;;
43646;SDS011;56152;49.996;18.980;2022-08-19T08:51:39;9.82;;;6.20;;
43646;SDS011;56152;49.996;18.980;2022-08-19T08:56:45;9.48;;;6.55;;
43646;SDS011;56152;49.996;18.980;2022-08-19T09:02:00;9.18;;;5.75;;
43646;SDS011;56152;49.996;18.980;2022-08-19T09:07:09;9.40;;;6.60;;
43646;SDS011;56152;49.996;18.980;2022-08-19T09:12:23;11.02;;;7.50;;
43646;SDS011;56152;49.996;18.980;2022-08-19T09:17:35;13.35;;;6.38;;
43646;SDS011;56152;49.996;18.980;2022-08-19T09:22:39;13.15;;;6.78;;
43646;SDS011;56152;49.996;18.980;2022-08-19T09:27:44;9.25;;;6.30;;
43646;SDS011;56152;49.996;18.980;2022-08-19T09:32:58;10.82;;;6.75;;
43646;SDS011;56152;49.996;18.980;2022-08-19T09:38:00;11.82;;;7.63;;
43646;SDS011;56152;49.996;18.980;2022-08-19T09:43:02;7.13;;;6.20;;
43646;SDS011;56152;49.996;18.980;2022-08-19T09:48:07;7.35;;;5.47;;
43646;SDS011;56152;49.996;18.980;2022-08-19T09:53:09;8.00;;;6.15;;
43646;SDS011;56152;49.996;18.980;2022-08-19T09:58:15;11.05;;;6.25;;
43646;SDS011;56152;49.996;18.980;2022-08-19T10:03:32;6.43;;;5.10;;
43646;SDS011;56152;49.996;18.980;2022-08-19T10:08:44;19.75;;;6.43;;
43646;SDS011;56152;49.996;18.980;2022-08-19T10:13:48;8.55;;;5.28;;
43646;SDS011;56152;49.996;18.980;2022-08-19T10:18:53;13.90;;;6.13;;
43646;SDS011;56152;49.996;18.980;2022-08-19T10:29:20;10.82;;;5.32;;
43646;SDS011;56152;49.996;18.980;2022-08-19T10:34:24;9.95;;;5.70;;
43646;SDS011;56152;49.996;18.980;2022-08-19T10:39:28;9.57;;;6.00;;
43646;SDS011;56152;49.996;18.980;2022-08-19T10:44:33;13.07;;;6.00;;
43646;SDS011;56152;49.996;18.980;2022-08-19T10:50:00;9.15;;;5.10;;
43646;SDS011;56152;49.996;18.980;2022-08-19T10:55:21;8.45;;;5.30;;
43646;SDS011;56152;49.996;18.980;2022-08-19T11:00:42;8.88;;;5.18;;
43646;SDS011;56152;49.996;18.980;2022-08-19T11:05:46;14.48;;;6.35;;
43646;SDS011;56152;49.996;18.980;2022-08-19T11:10:58;14.85;;;5.60;;
43646;SDS011;56152;49.996;18.980;2022-08-19T11:16:03;7.57;;;5.07;;
43646;SDS011;56152;49.996;18.980;2022-08-19T11:21:10;8.10;;;4.88;;
43646;SDS011;56152;49.996;18.980;2022-08-19T11:26:20;8.88;;;5.28;;
43646;SDS011;56152;49.996;18.980;2022-08-19T11:31:24;9.70;;;5.28;;
43646;SDS011;56152;49.996;18.980;2022-08-19T11:36:36;10.65;;;5.82;;
43646;SDS011;56152;49.996;18.980;2022-08-19T11:41:42;11.55;;;5.45;;
43646;SDS011;56152;49.996;18.980;2022-08-19T11:46:45;7.18;;;5.05;;
43646;SDS011;56152;49.996;18.980;2022-08-19T11:51:51;9.82;;;5.88;;
43646;SDS011;56152;49.996;18.980;2022-08-19T11:56:58;14.05;;;6.63;;
43646;SDS011;56152;49.996;18.980;2022-08-19T12:02:01;12.10;;;4.90;;
43646;SDS011;56152;49.996;18.980;2022-08-19T12:07:05;8.57;;;5.20;;
43646;SDS011;56152;49.996;18.980;2022-08-19T12:12:07;6.65;;;4.53;;
43646;SDS011;56152;49.996;18.980;2022-08-19T12:17:12;12.90;;;5.63;;
43646;SDS011;56152;49.996;18.980;2022-08-19T12:22:17;12.43;;;5.43;;
43646;SDS011;56152;49.996;18.980;2022-08-19T12:27:21;9.38;;;5.43;;
43646;SDS011;56152;49.996;18.980;2022-08-19T12:32:23;13.60;;;5.97;;
43646;SDS011;56152;49.996;18.980;2022-08-19T12:37:28;10.48;;;5.28;;
43646;SDS011;56152;49.996;18.980;2022-08-19T12:42:32;12.43;;;5.35;;
43646;SDS011;56152;49.996;18.980;2022-08-19T12:47:37;10.30;;;5.00;;
43646;SDS011;56152;49.996;18.980;2022-08-19T12:52:42;7.78;;;5.03;;
43646;SDS011;56152;49.996;18.980;2022-08-19T12:58:02;7.47;;;3.80;;
43646;SDS011;56152;49.996;18.980;2022-08-19T13:03:04;9.23;;;4.40;;
43646;SDS011;56152;49.996;18.980;2022-08-19T13:08:08;12.35;;;5.22;;
43646;SDS011;56152;49.996;18.980;2022-08-19T13:13:11;11.23;;;5.35;;
43646;SDS011;56152;49.996;18.980;2022-08-19T13:18:15;12.70;;;5.20;;
43646;SDS011;56152;49.996;18.980;2022-08-19T13:23:19;14.18;;;5.32;;
43646;SDS011;56152;49.996;18.980;2022-08-19T13:28:23;11.38;;;5.28;;
43646;SDS011;56152;49.996;18.980;2022-08-19T13:33:25;12.13;;;5.25;;
43646;SDS011;56152;49.996;18.980;2022-08-19T13:38:34;13.10;;;5.63;;
43646;SDS011;56152;49.996;18.980;2022-08-19T13:43:45;9.57;;;4.80;;
43646;SDS011;56152;49.996;18.980;2022-08-19T13:49:06;10.27;;;5.18;;
43646;SDS011;56152;49.996;18.980;2022-08-19T13:54:20;13.88;;;5.57;;
43646;SDS011;56152;49.996;18.980;2022-08-19T13:59:22;11.93;;;5.22;;
43646;SDS011;56152;49.996;18.980;2022-08-19T14:04:24;21.77;;;5.60;;
43646;SDS011;56152;49.996;18.980;2022-08-19T14:09:32;14.88;;;5.30;;
43646;SDS011;56152;49.996;18.980;2022-08-19T14:14:35;12.00;;;5.32;;
43646;SDS011;56152;49.996;18.980;2022-08-19T14:19:38;21.02;;;5.05;;
43646;SDS011;56152;49.996;18.980;2022-08-19T14:24:42;15.93;;;6.05;;
43646;SDS011;56152;49.996;18.980;2022-08-19T14:29:48;12.10;;;5.93;;
43646;SDS011;56152;49.996;18.980;2022-08-19T14:34:49;10.88;;;4.60;;
43646;SDS011;56152;49.996;18.980;2022-08-19T14:39:54;7.20;;;4.40;;
43646;SDS011;56152;49.996;18.980;2022-08-19T14:44:58;11.88;;;6.75;;
43646;SDS011;56152;49.996;18.980;2022-08-19T14:50:01;11.80;;;6.35;;
43646;SDS011;56152;49.996;18.980;2022-08-19T14:55:08;18.95;;;5.60;;
43646;SDS011;56152;49.996;18.980;2022-08-19T15:00:27;14.15;;;5.18;;
43646;SDS011;56152;49.996;18.980;2022-08-19T15:10:40;10.68;;;5.68;;
43646;SDS011;56152;49.996;18.980;2022-08-19T15:15:42;11.35;;;5.85;;
43646;SDS011;56152;49.996;18.980;2022-08-19T15:20:54;11.32;;;5.68;;
43646;SDS011;56152;49.996;18.980;2022-08-19T15:25:58;13.80;;;5.82;;
43646;SDS011;56152;49.996;18.980;2022-08-19T15:31:03;33.13;;;7.20;;
43646;SDS011;56152;49.996;18.980;2022-08-19T15:36:06;19.58;;;6.38;;
43646;SDS011;56152;49.996;18.980;2022-08-19T15:41:17;14.52;;;6.63;;
43646;SDS011;56152;49.996;18.980;2022-08-19T15:46:27;22.50;;;6.10;;
43646;SDS011;56152;49.996;18.980;2022-08-19T15:51:31;10.95;;;4.82;;
43646;SDS011;56152;49.996;18.980;2022-08-19T15:56:36;17.40;;;5.95;;
43646;SDS011;56152;49.996;18.980;2022-08-19T16:01:56;21.15;;;6.85;;
43646;SDS011;56152;49.996;18.980;2022-08-19T16:07:15;20.90;;;7.72;;
43646;SDS011;56152;49.996;18.980;2022-08-19T16:12:19;26.77;;;6.53;;
43646;SDS011;56152;49.996;18.980;2022-08-19T16:17:24;16.88;;;6.32;;
43646;SDS011;56152;49.996;18.980;2022-08-19T16:22:27;15.80;;;6.18;;
43646;SDS011;56152;49.996;18.980;2022-08-19T16:27:32;28.73;;;6.90;;
43646;SDS011;56152;49.996;18.980;2022-08-19T16:32:34;21.80;;;6.60;;
43646;SDS011;56152;49.996;18.980;2022-08-19T16:37:37;19.52;;;6.50;;
43646;SDS011;56152;49.996;18.980;2022-08-19T16:42:43;24.38;;;7.47;;
43646;SDS011;56152;49.996;18.980;2022-08-19T16:47:55;21.25;;;8.32;;
43646;SDS011;56152;49.996;18.980;2022-08-19T16:52:57;47.22;;;10.93;;
43646;SDS011;56152;49.996;18.980;2022-08-19T16:58:06;18.75;;;6.55;;
43646;SDS011;56152;49.996;18.980;2022-08-19T17:03:08;15.63;;;5.85;;
43646;SDS011;56152;49.996;18.980;2022-08-19T17:08:12;21.77;;;9.65;;
43646;SDS011;56152;49.996;18.980;2022-08-19T17:13:20;9.15;;;6.60;;
43646;SDS011;56152;49.996;18.980;2022-08-19T17:18:26;13.30;;;6.35;;
43646;SDS011;56152;49.996;18.980;2022-08-19T17:23:42;14.43;;;8.50;;
43646;SDS011;56152;49.996;18.980;2022-08-19T17:28:46;12.70;;;7.15;;
43646;SDS011;56152;49.996;18.980;2022-08-19T17:33:50;14.15;;;7.28;;
43646;SDS011;56152;49.996;18.980;2022-08-19T17:38:54;14.65;;;7.22;;
43646;SDS011;56152;49.996;18.980;2022-08-19T17:44:00;19.27;;;7.93;;
43646;SDS011;56152;49.996;18.980;2022-08-19T17:49:02;13.32;;;8.43;;
43646;SDS011;56152;49.996;18.980;2022-08-19T17:54:08;22.08;;;9.38;;
43646;SDS011;56152;49.996;18.980;2022-08-19T17:59:22;23.60;;;8.95;;
43646;SDS011;56152;49.996;18.980;2022-08-19T18:04:24;24.48;;;10.18;;
43646;SDS011;56152;49.996;18.980;2022-08-19T18:09:31;32.20;;;12.93;;
43646;SDS011;56152;49.996;18.980;2022-08-19T18:14:42;15.65;;;7.75;;
43646;SDS011;56152;49.996;18.980;2022-08-19T18:19:46;17.52;;;8.52;;
43646;SDS011;56152;49.996;18.980;2022-08-19T18:24:52;14.13;;;8.05;;
43646;SDS011;56152;49.996;18.980;2022-08-19T18:29:57;13.35;;;8.05;;
43646;SDS011;56152;49.996;18.980;2022-08-19T18:35:10;8.95;;;6.22;;
43646;SDS011;56152;49.996;18.980;2022-08-19T18:40:16;14.60;;;7.65;;
43646;SDS011;56152;49.996;18.980;2022-08-19T18:45:40;15.88;;;9.93;;
43646;SDS011;56152;49.996;18.980;2022-08-19T18:51:13;21.38;;;12.32;;
43646;SDS011;56152;49.996;18.980;2022-08-19T18:56:17;25.13;;;14.73;;
43646;SDS011;56152;49.996;18.980;2022-08-19T19:01:25;21.15;;;11.45;;
43646;SDS011;56152;49.996;18.980;2022-08-19T19:06:33;16.55;;;8.90;;
43646;SDS011;56152;49.996;18.980;2022-08-19T19:11:40;14.73;;;8.82;;
43646;SDS011;56152;49.996;18.980;2022-08-19T19:16:45;10.80;;;7.22;;
43646;SDS011;56152;49.996;18.980;2022-08-19T19:21:48;12.35;;;6.13;;
43646;SDS011;56152;49.996;18.980;2022-08-19T19:26:52;8.52;;;6.10;;
43646;SDS011;56152;49.996;18.980;2022-08-19T19:31:57;16.25;;;10.88;;
43646;SDS011;56152;49.996;18.980;2022-08-19T19:36:59;8.48;;;6.82;;
43646;SDS011;56152;49.996;18.980;2022-08-19T19:42:05;13.80;;;8.55;;
43646;SDS011;56152;49.996;18.980;2022-08-19T19:47:11;13.35;;;9.00;;
43646;SDS011;56152;49.996;18.980;2022-08-19T19:52:17;15.75;;;8.25;;
43646;SDS011;56152;49.996;18.980;2022-08-19T19:57:21;17.30;;;8.45;;
43646;SDS011;56152;49.996;18.980;2022-08-19T20:02:27;9.48;;;7.72;;
43646;SDS011;56152;49.996;18.980;2022-08-19T20:07:29;11.30;;;7.65;;
43646;SDS011;56152;49.996;18.980;2022-08-19T20:12:48;10.20;;;7.68;;
43646;SDS011;56152;49.996;18.980;2022-08-19T20:17:52;11.32;;;9.10;;
43646;SDS011;56152;49.996;18.980;2022-08-19T20:22:54;12.02;;;8.02;;
43646;SDS011;56152;49.996;18.980;2022-08-19T20:28:00;13.30;;;8.20;;
43646;SDS011;56152;49.996;18.980;2022-08-19T20:33:05;13.70;;;8.68;;
43646;SDS011;56152;49.996;18.980;2022-08-19T20:38:09;14.85;;;8.25;;
43646;SDS011;56152;49.996;18.980;2022-08-19T20:43:19;11.98;;;7.63;;
43646;SDS011;56152;49.996;18.980;2022-08-19T20:48:29;10.18;;;7.50;;
43646;SDS011;56152;49.996;18.980;2022-08-19T20:53:33;15.15;;;8.30;;
43646;SDS011;56152;49.996;18.980;2022-08-19T20:58:38;11.35;;;8.48;;
43646;SDS011;56152;49.996;18.980;2022-08-19T21:03:44;17.92;;;12.38;;
43646;SDS011;56152;49.996;18.980;2022-08-19T21:08:46;29.98;;;18.48;;
43646;SDS011;56152;49.996;18.980;2022-08-19T21:13:49;30.40;;;18.60;;
43646;SDS011;56152;49.996;18.980;2022-08-19T21:18:53;20.15;;;13.23;;
43646;SDS011;56152;49.996;18.980;2022-08-19T21:23:58;14.00;;;11.13;;
43646;SDS011;56152;49.996;18.980;2022-08-19T21:29:05;14.88;;;9.60;;
43646;SDS011;56152;49.996;18.980;2022-08-19T21:34:11;17.60;;;12.38;;
43646;SDS011;56152;49.996;18.980;2022-08-19T21:39:13;13.98;;;10.00;;
43646;SDS011;56152;49.996;18.980;2022-08-19T21:44:15;12.95;;;9.48;;
43646;SDS011;56152;49.996;18.980;2022-08-19T21:49:20;14.40;;;10.35;;
43646;SDS011;56152;49.996;18.980;2022-08-19T21:54:21;14.98;;;9.35;;
43646;SDS011;56152;49.996;18.980;2022-08-19T21:59:23;14.98;;;10.50;;
43646;SDS011;56152;49.996;18.980;2022-08-19T22:04:29;14.65;;;10.80;;
43646;SDS011;56152;49.996;18.980;2022-08-19T22:09:30;13.95;;;10.27;;
43646;SDS011;56152;49.996;18.980;2022-08-19T22:14:32;12.00;;;10.80;;
43646;SDS011;56152;49.996;18.980;2022-08-19T22:19:37;19.40;;;11.30;;
43646;SDS011;56152;49.996;18.980;2022-08-19T22:24:39;13.20;;;10.70;;
43646;SDS011;56152;49.996;18.980;2022-08-19T22:29:45;21.20;;;13.93;;
43646;SDS011;56152;49.996;18.980;2022-08-19T22:34:49;17.50;;;11.93;;
43646;SDS011;56152;49.996;18.980;2022-08-19T22:39:51;13.32;;;10.70;;
43646;SDS011;56152;49.996;18.980;2022-08-19T22:44:55;17.13;;;12.45;;
43646;SDS011;56152;49.996;18.980;2022-08-19T22:49:59;16.00;;;10.93;;
43646;SDS011;56152;49.996;18.980;2022-08-19T22:55:01;16.45;;;11.00;;
43646;SDS011;56152;49.996;18.980;2022-08-19T23:00:05;15.23;;;11.82;;
43646;SDS011;56152;49.996;18.980;2022-08-19T23:05:12;14.30;;;10.25;;
43646;SDS011;56152;49.996;18.980;2022-08-19T23:10:14;15.00;;;10.00;;
43646;SDS011;56152;49.996;18.980;2022-08-19T23:15:17;11.20;;;9.13;;
43646;SDS011;56152;49.996;18.980;2022-08-19T23:20:27;13.40;;;8.93;;
43646;SDS011;56152;49.996;18.980;2022-08-19T23:25:32;16.60;;;9.73;;
43646;SDS011;56152;49.996;18.980;2022-08-19T23:30:36;14.40;;;8.60;;
43646;SDS011;56152;49.996;18.980;2022-08-19T23:35:43;26.75;;;15.40;;
43646;SDS011;56152;49.996;18.980;2022-08-19T23:40:45;15.52;;;10.98;;
43646;SDS011;56152;49.996;18.980;2022-08-19T23:45:49;16.10;;;10.30;;
43646;SDS011;56152;49.996;18.980;2022-08-19T23:50:55;18.25;;;10.80;;
43646;SDS011;56152;49.996;18.980;2022-08-19T23:55:57;18.08;;;11.43;;
